EDDB/SXF METAR and TAF weather

Enter ICAO airport designator
Station Type Date Time Source
EDDB METAR 2019/12/13 22:20 UTC NOAA

EDDB 132220Z 14005KT 9999 BKN031 02/00 Q0984 NOSIG


Station Type Date Time Source
EDDB Decoded METAR 2019/12/13 22:20 UTC NOAA

Berlin-Schoenefeld, Germany (EDDB) 52-23N 013-31E 50M
Dec 13, 2019 - 05:20 PM EST / 2019.12.13 2220 UTC
Wind: from the SE (140 degrees) at 6 MPH (5 KT):0
Visibility: greater than 7 mile(s):0
Sky conditions: mostly cloudy
Temperature: 35 F (2 C)
Windchill: 30 F (-1 C):1
Dew Point: 32 F (0 C)
Relative Humidity: 86%
Pressure (altimeter): 29.06 in. Hg (0984 hPa)
ob: EDDB 132220Z 14005KT 9999 BKN031 02/00 Q0984 NOSIG
cycle: 22

Station Type Date Time Source
EDDB TAF 2019/12/13 21:59 UTC NOAA

TAF
AMD EDDB 132150Z 1321/1418 13008KT 9999 BKN025
BECMG 1400/1402 19007KT BKN012 PROB40
TEMPO 1401/1408 RA BKN004
TEMPO 1408/1412 BKN020
BECMG 1411/1413 23012KT
TEMPO 1412/1418 22015G25KT 4500 RA

Example: see airport list